createdAt,value
2019-02-28T00:03:04.334Z,83.30
2019-02-28T00:05:46.789Z,84.00
2019-02-28T00:08:28.994Z,84.30
2019-02-28T00:11:12.142Z,84.50
2019-02-28T00:13:56.004Z,84.40
2019-02-28T00:16:38.540Z,84.60
2019-02-28T00:19:21.020Z,85.10
2019-02-28T00:25:38.053Z,86.10
2019-02-28T00:31:21.231Z,86.30
2019-02-28T00:34:05.469Z,86.80
2019-02-28T00:36:50.302Z,87.20
2019-02-28T00:39:34.902Z,87.50
2019-02-28T00:42:17.687Z,87.70
2019-02-28T00:44:48.115Z,88.30
2019-02-28T00:47:37.480Z,88.40
2019-02-28T00:50:27.644Z,88.50
2019-02-28T00:56:28.068Z,88.40
2019-02-28T00:59:17.392Z,89.10
2019-02-28T01:02:06.739Z,89.60
2019-02-28T01:04:56.095Z,89.60
2019-02-28T01:10:39.220Z,89.60
2019-02-28T01:13:07.973Z,90.00
2019-02-28T01:15:44.392Z,89.70
2019-02-28T01:18:10.200Z,90.10
2019-02-28T01:20:40.859Z,90.10
2019-02-28T01:23:11.157Z,90.30
2019-02-28T01:25:41.424Z,90.30
2019-02-28T01:28:11.688Z,90.50
2019-02-28T01:30:42.001Z,90.70
2019-02-28T01:33:12.164Z,90.70
2019-02-28T01:35:42.385Z,91.20
2019-02-28T01:38:12.545Z,91.50
2019-02-28T01:40:42.694Z,91.50
2019-02-28T01:43:12.866Z,91.50
2019-02-28T01:45:44.234Z,91.50
2019-02-28T01:48:14.702Z,91.70
2019-02-28T01:50:44.976Z,91.80
2019-02-28T01:53:18.696Z,91.90
2019-02-28T01:55:47.245Z,92.10
2019-02-28T01:58:17.505Z,92.10
2019-02-28T02:00:47.641Z,91.80
2019-02-28T02:03:17.783Z,91.30
2019-02-28T02:05:48.290Z,91.10
2019-02-28T02:08:19.857Z,91.10
2019-02-28T02:10:54.766Z,91.00
2019-02-28T02:13:22.052Z,91.10
2019-02-28T02:15:52.328Z,91.10
2019-02-28T02:18:22.600Z,91.00
2019-02-28T02:20:52.933Z,91.10
2019-02-28T02:23:23.181Z,91.10
2019-02-28T02:25:53.432Z,91.10
2019-02-28T02:28:26.816Z,91.00
2019-02-28T02:30:55.637Z,91.30
2019-02-28T02:33:25.837Z,91.30
2019-02-28T02:35:56.149Z,91.80
2019-02-28T02:38:26.421Z,91.90
2019-02-28T02:41:00.540Z,92.40
2019-02-28T02:43:28.628Z,92.60
2019-02-28T02:45:58.921Z,93.10
2019-02-28T02:48:29.301Z,93.00
2019-02-28T02:50:59.601Z,93.00
2019-02-28T02:53:29.891Z,93.10
2019-02-28T02:56:03.741Z,93.20
2019-02-28T02:58:32.145Z,93.10
2019-02-28T03:01:02.400Z,93.40
2019-02-28T03:03:32.672Z,93.40
2019-02-28T03:06:02.875Z,93.30
2019-02-28T03:08:36.414Z,93.30
2019-02-28T03:11:05.009Z,93.20
2019-02-28T03:13:41.929Z,93.40
2019-02-28T03:16:07.176Z,93.50
2019-02-28T03:18:37.371Z,93.70
2019-02-28T03:21:07.635Z,94.30
2019-02-28T03:23:39.798Z,94.20
2019-02-28T03:26:09.785Z,94.20
2019-02-28T03:28:40.002Z,94.50
2019-02-28T03:31:14.163Z,94.50
2019-02-28T03:33:42.218Z,94.60
2019-02-28T03:36:15.841Z,94.50
2019-02-28T03:38:48.267Z,93.90
2019-02-28T03:41:18.059Z,94.40
2019-02-28T03:43:48.744Z,94.40
2019-02-28T03:46:19.029Z,94.30
2019-02-28T03:48:49.372Z,94.00
2019-02-28T03:51:19.570Z,93.70
2019-02-28T03:53:55.688Z,93.60
2019-02-28T03:56:21.892Z,93.40
2019-02-28T03:58:52.209Z,93.70
2019-02-28T04:01:22.515Z,94.10
2019-02-28T04:03:52.846Z,94.20
2019-02-28T04:06:23.145Z,94.30
2019-02-28T04:08:53.427Z,94.40
2019-02-28T04:11:30.529Z,94.70
2019-02-28T04:13:56.044Z,94.80
2019-02-28T04:16:27.181Z,95.10
2019-02-28T04:18:57.524Z,95.30
2019-02-28T04:21:30.609Z,95.50
2019-02-28T04:23:59.745Z,95.30
2019-02-28T04:26:30.985Z,94.80
2019-02-28T04:29:01.450Z,94.90
2019-02-28T04:31:31.689Z,95.30
2019-02-28T04:34:01.873Z,95.40
2019-02-28T04:36:35.523Z,95.40
2019-02-28T04:39:06.454Z,95.20
2019-02-28T04:41:36.653Z,95.30
2019-02-28T04:44:06.884Z,95.40
2019-02-28T04:46:37.169Z,95.80
2019-02-28T04:49:07.368Z,96.00
2019-02-28T04:51:40.161Z,95.80
2019-02-28T04:54:09.589Z,95.30
2019-02-28T04:56:42.360Z,95.00
2019-02-28T04:59:11.877Z,94.80
2019-02-28T05:01:45.221Z,94.80
2019-02-28T05:04:14.174Z,94.70
2019-02-28T05:06:44.439Z,94.90
2019-02-28T05:09:15.266Z,95.10
2019-02-28T05:11:45.599Z,95.00
2019-02-28T05:14:15.917Z,94.80
2019-02-28T05:16:47.524Z,95.20
2019-02-28T05:19:18.114Z,95.40
2019-02-28T05:21:50.636Z,95.70
2019-02-28T05:24:20.315Z,95.20
2019-02-28T05:26:50.577Z,95.60
2019-02-28T05:29:20.917Z,95.60
2019-02-28T05:31:51.132Z,95.40
2019-02-28T05:34:21.372Z,94.90
2019-02-28T05:36:51.701Z,94.70
2019-02-28T05:39:21.999Z,94.40
2019-02-28T05:41:52.270Z,94.40
2019-02-28T05:44:22.641Z,94.60
2019-02-28T05:46:57.673Z,95.00
2019-02-28T05:49:24.894Z,95.30
2019-02-28T05:51:58.626Z,95.30
2019-02-28T05:54:27.291Z,95.60
2019-02-28T05:56:57.618Z,96.20
2019-02-28T05:59:28.917Z,95.90
2019-02-28T06:01:59.271Z,95.90
2019-02-28T06:04:29.611Z,95.80
2019-02-28T06:07:00.066Z,95.80
2019-02-28T06:09:30.386Z,96.30
2019-02-28T06:12:00.727Z,96.10
2019-02-28T06:14:31.056Z,96.10
2019-02-28T06:17:01.347Z,96.10
2019-02-28T06:19:31.637Z,96.20
2019-02-28T06:22:02.066Z,96.10
2019-02-28T06:24:32.414Z,96.00
2019-02-28T06:27:03.715Z,95.80
2019-02-28T06:29:36.807Z,95.80
2019-02-28T06:32:06.699Z,95.70
2019-02-28T06:34:39.458Z,95.40
2019-02-28T06:37:08.981Z,95.20
2019-02-28T06:39:39.310Z,95.10
2019-02-28T06:42:11.766Z,95.00
2019-02-28T06:44:41.513Z,95.20
2019-02-28T06:47:14.260Z,95.00
2019-02-28T06:49:43.834Z,95.10
2019-02-28T06:52:14.157Z,95.20
2019-02-28T06:54:44.470Z,95.20
2019-02-28T06:57:14.841Z,96.60
2019-02-28T06:59:45.138Z,97.60
2019-02-28T07:02:15.445Z,94.70
2019-02-28T07:04:49.447Z,94.40
2019-02-28T07:07:17.718Z,95.20
2019-02-28T07:09:48.054Z,95.00
2019-02-28T07:12:18.344Z,94.50
2019-02-28T07:14:49.585Z,94.50
2019-02-28T07:17:19.843Z,94.40
2019-02-28T07:19:50.087Z,94.40
2019-02-28T07:22:20.718Z,95.00
2019-02-28T07:24:51.080Z,95.30
2019-02-28T07:27:23.383Z,96.10
2019-02-28T07:29:53.478Z,95.60
2019-02-28T07:32:23.775Z,94.50
2019-02-28T07:34:54.979Z,94.70
2019-02-28T07:37:26.049Z,95.40
2019-02-28T07:39:56.372Z,95.40
2019-02-28T07:42:26.659Z,96.00
2019-02-28T07:44:57.878Z,95.50
2019-02-28T07:47:29.032Z,94.90
2019-02-28T07:49:59.357Z,94.10
2019-02-28T07:52:33.530Z,94.40
2019-02-28T07:55:01.670Z,93.80
2019-02-28T07:57:31.970Z,93.40
2019-02-28T08:00:02.374Z,93.80
2019-02-28T08:02:35.632Z,93.90
2019-02-28T08:05:05.492Z,93.80
2019-02-28T08:07:35.753Z,94.30
2019-02-28T08:10:08.341Z,94.40
2019-02-28T08:12:38.581Z,94.60
2019-02-28T08:15:13.692Z,94.80
2019-02-28T08:17:44.731Z,94.80
2019-02-28T08:20:15.300Z,94.80
2019-02-28T08:22:45.594Z,94.80
2019-02-28T08:25:15.896Z,94.90
2019-02-28T08:27:46.117Z,94.90
2019-02-28T08:30:20.601Z,94.90
2019-02-28T08:32:51.040Z,94.80
2019-02-28T08:35:21.423Z,95.30
2019-02-28T08:37:55.818Z,93.80
2019-02-28T08:40:26.323Z,93.70
2019-02-28T08:42:55.793Z,93.80
2019-02-28T08:45:26.086Z,93.60
2019-02-28T08:47:56.985Z,93.30
2019-02-28T08:50:27.487Z,93.50
2019-02-28T08:52:57.802Z,93.70
2019-02-28T08:55:29.279Z,93.90
2019-02-28T08:58:05.084Z,94.00
2019-02-28T09:00:33.229Z,94.30
2019-02-28T09:03:03.793Z,94.00
2019-02-28T09:05:34.064Z,94.10
2019-02-28T09:08:04.451Z,94.00
2019-02-28T09:10:34.873Z,93.80
2019-02-28T09:13:07.853Z,93.80
2019-02-28T09:15:37.292Z,93.60
2019-02-28T09:18:07.549Z,93.70
2019-02-28T09:20:37.881Z,93.40
2019-02-28T09:23:08.156Z,92.80
2019-02-28T09:25:38.429Z,92.20
2019-02-28T09:28:10.242Z,92.30
2019-02-28T09:30:41.023Z,91.60
2019-02-28T09:33:11.336Z,92.20
2019-02-28T09:35:45.214Z,91.30
2019-02-28T09:38:13.906Z,90.40
2019-02-28T09:40:44.284Z,89.70
2019-02-28T09:43:14.529Z,89.40
2019-02-28T09:45:44.953Z,88.70
2019-02-28T09:48:15.269Z,88.30
2019-02-28T09:50:45.566Z,87.40
2019-02-28T09:53:16.768Z,87.20
2019-02-28T09:55:47.093Z,87.60
2019-02-28T09:58:17.460Z,87.80
2019-02-28T10:00:50.276Z,86.30
2019-02-28T10:03:19.917Z,85.30
2019-02-28T10:05:50.272Z,84.30
2019-02-28T10:08:21.815Z,83.20
2019-02-28T10:10:52.371Z,83.00
2019-02-28T10:13:24.338Z,82.80
2019-02-28T10:15:54.724Z,81.60
2019-02-28T10:18:25.106Z,81.10
2019-02-28T10:20:55.438Z,80.90
2019-02-28T10:23:25.759Z,79.80
2019-02-28T10:25:56.206Z,78.80
2019-02-28T10:28:26.540Z,78.60
2019-02-28T10:30:57.013Z,77.60
2019-02-28T10:33:27.394Z,76.70
2019-02-28T10:35:57.747Z,77.20
2019-02-28T10:38:29.444Z,75.60
2019-02-28T10:41:00.155Z,74.20
2019-02-28T10:43:30.501Z,74.10
2019-02-28T10:46:00.760Z,72.40
2019-02-28T10:48:31.112Z,72.50
2019-02-28T10:51:12.891Z,71.40
2019-02-28T10:53:36.303Z,71.00
2019-02-28T10:56:05.700Z,71.00
2019-02-28T10:58:36.153Z,71.40
2019-02-28T11:01:09.702Z,71.50
2019-02-28T11:03:40.122Z,71.60
2019-02-28T11:06:10.518Z,70.60
2019-02-28T11:08:40.896Z,69.40
2019-02-28T11:11:11.262Z,69.30
2019-02-28T11:13:41.633Z,69.00
2019-02-28T11:16:12.277Z,69.20
2019-02-28T11:18:42.803Z,68.90
2019-02-28T11:21:14.009Z,66.70
2019-02-28T11:23:46.543Z,66.10
2019-02-28T11:26:16.456Z,64.50
2019-02-28T11:28:46.889Z,64.60
2019-02-28T11:31:19.230Z,63.60
2019-02-28T11:33:50.236Z,63.40
2019-02-28T11:36:21.360Z,62.60
2019-02-28T11:38:52.515Z,62.20
2019-02-28T11:41:23.668Z,61.50
2019-02-28T11:43:54.192Z,60.90
2019-02-28T11:46:24.684Z,60.50
2019-02-28T11:48:55.148Z,60.20
2019-02-28T11:51:25.621Z,58.60
2019-02-28T11:53:56.120Z,58.40
2019-02-28T11:56:28.823Z,56.50
2019-02-28T11:58:58.509Z,55.90
2019-02-28T12:01:28.974Z,55.70
2019-02-28T12:03:59.327Z,55.90
2019-02-28T12:06:29.745Z,55.70
2019-02-28T12:09:00.034Z,54.40
2019-02-28T12:11:33.510Z,54.70
2019-02-28T12:14:02.867Z,54.80
2019-02-28T12:16:35.180Z,54.00
2019-02-28T12:19:05.442Z,53.80
2019-02-28T12:21:38.119Z,53.40
2019-02-28T12:24:07.893Z,54.00
2019-02-28T12:26:38.324Z,54.20
2019-02-28T12:29:09.387Z,53.50
2019-02-28T12:31:40.557Z,53.90
2019-02-28T12:34:10.945Z,53.70
2019-02-28T12:36:41.284Z,51.20
2019-02-28T12:39:11.636Z,49.50
2019-02-28T12:41:41.871Z,49.50
2019-02-28T12:44:12.431Z,49.70
2019-02-28T12:46:44.364Z,49.80
2019-02-28T12:49:14.661Z,49.80
2019-02-28T12:51:44.967Z,50.10
2019-02-28T12:54:15.473Z,50.50
2019-02-28T12:56:47.804Z,50.60
2019-02-28T12:59:17.900Z,50.30
2019-02-28T13:01:48.280Z,51.20
2019-02-28T13:04:18.595Z,51.40
2019-02-28T13:06:48.948Z,51.90
2019-02-28T13:09:19.343Z,52.50
2019-02-28T13:11:49.734Z,53.20
2019-02-28T13:14:20.069Z,53.50
2019-02-28T13:16:50.470Z,53.70
2019-02-28T13:19:21.051Z,54.50
2019-02-28T13:21:51.418Z,54.50
2019-02-28T13:24:21.787Z,54.90
2019-02-28T13:26:52.145Z,55.10
2019-02-28T13:29:22.494Z,55.10
2019-02-28T13:31:52.820Z,55.60
2019-02-28T13:34:25.186Z,56.20
2019-02-28T13:37:02.072Z,56.50
2019-02-28T13:39:31.297Z,56.70
2019-02-28T13:42:03.257Z,57.00
2019-02-28T13:44:35.873Z,57.10
2019-02-28T13:47:09.334Z,57.00
2019-02-28T13:49:36.186Z,56.40
2019-02-28T13:52:06.500Z,57.10
2019-02-28T13:54:38.148Z,57.30
2019-02-28T13:57:10.248Z,57.70
2019-02-28T13:59:40.663Z,57.60
2019-02-28T14:02:11.463Z,58.00
2019-02-28T14:04:43.156Z,58.60
2019-02-28T14:07:13.472Z,58.80
2019-02-28T14:09:43.874Z,58.40
2019-02-28T14:12:17.028Z,58.60
2019-02-28T14:14:46.318Z,58.90
2019-02-28T14:17:16.759Z,58.80
2019-02-28T14:19:47.068Z,58.80
2019-02-28T14:22:17.398Z,58.60
2019-02-28T14:24:47.710Z,58.50
2019-02-28T14:27:18.080Z,58.90
2019-02-28T14:29:49.106Z,58.40
2019-02-28T14:32:22.552Z,58.00
2019-02-28T14:34:52.908Z,58.20
2019-02-28T14:37:23.233Z,58.20
2019-02-28T14:39:53.556Z,58.20
2019-02-28T14:42:23.882Z,58.10
2019-02-28T14:44:54.219Z,58.30
2019-02-28T14:47:24.999Z,57.70
2019-02-28T14:49:56.721Z,57.60
2019-02-28T14:52:27.101Z,57.50
2019-02-28T14:54:58.345Z,57.50
2019-02-28T14:57:28.875Z,58.00
2019-02-28T15:00:00.050Z,58.10
2019-02-28T15:02:30.482Z,58.20
2019-02-28T15:05:00.909Z,58.70
2019-02-28T15:07:31.216Z,59.20
2019-02-28T15:10:02.601Z,59.60
2019-02-28T15:12:33.067Z,59.80
2019-02-28T15:15:03.395Z,59.80
2019-02-28T15:17:33.754Z,59.70
2019-02-28T15:20:04.289Z,59.90
2019-02-28T15:22:34.596Z,60.30
2019-02-28T15:25:04.963Z,61.20
2019-02-28T15:27:36.322Z,61.10
2019-02-28T15:30:10.999Z,60.80
2019-02-28T15:32:41.428Z,60.30
2019-02-28T15:35:15.341Z,59.10
2019-02-28T15:37:45.730Z,58.80
2019-02-28T15:40:25.374Z,59.00
2019-02-28T15:42:55.844Z,58.90
2019-02-28T15:45:26.906Z,58.00
2019-02-28T15:47:59.143Z,58.20
2019-02-28T15:50:29.512Z,58.50
2019-02-28T15:52:59.974Z,59.10
2019-02-28T15:55:30.550Z,60.10
2019-02-28T15:58:02.657Z,61.40
2019-02-28T16:00:32.962Z,63.20
2019-02-28T16:03:03.273Z,65.90
2019-02-28T16:05:33.620Z,68.10
2019-02-28T16:08:08.996Z,69.60
2019-02-28T16:10:39.043Z,70.50
2019-02-28T16:13:09.536Z,71.30
2019-02-28T16:15:39.892Z,72.00
2019-02-28T16:18:12.126Z,73.10
2019-02-28T16:20:42.268Z,73.50
2019-02-28T16:23:12.609Z,73.90
2019-02-28T16:25:42.941Z,74.10
2019-02-28T16:28:13.251Z,74.80
2019-02-28T16:30:43.565Z,75.70
2019-02-28T16:33:13.892Z,76.20
2019-02-28T16:35:46.770Z,77.10
2019-02-28T16:38:16.280Z,77.90
2019-02-28T16:40:46.632Z,78.60
2019-02-28T16:43:17.474Z,79.30
2019-02-28T16:45:49.881Z,79.80
2019-02-28T16:48:20.268Z,80.20
2019-02-28T16:50:53.806Z,80.90
2019-02-28T16:53:23.820Z,81.20
2019-02-28T16:55:54.321Z,81.50
2019-02-28T16:58:24.648Z,81.90
2019-02-28T17:00:54.934Z,81.90
2019-02-28T17:03:25.270Z,81.90
2019-02-28T17:05:58.382Z,82.30
2019-02-28T17:08:29.397Z,82.50
2019-02-28T17:10:59.801Z,82.90
2019-02-28T17:13:35.583Z,82.70
2019-02-28T17:16:20.188Z,83.30
2019-02-28T17:18:53.549Z,83.20
2019-02-28T17:21:22.630Z,83.20
2019-02-28T17:23:53.193Z,82.90
2019-02-28T17:26:42.528Z,82.90
2019-02-28T17:29:25.152Z,82.80
2019-02-28T17:31:56.450Z,83.10
2019-02-28T17:34:26.843Z,83.10
2019-02-28T17:36:57.179Z,82.50
2019-02-28T17:39:27.522Z,82.30
2019-02-28T17:41:57.984Z,82.40
2019-02-28T17:44:59.821Z,83.10
2019-02-28T17:48:13.590Z,82.40
2019-02-28T17:51:15.008Z,82.30
2019-02-28T17:54:10.893Z,82.70
2019-02-28T17:57:11.139Z,83.20
2019-02-28T18:00:48.164Z,83.60
2019-02-28T18:03:52.064Z,84.20
2019-02-28T18:07:11.105Z,85.20
2019-02-28T18:09:58.525Z,86.10
2019-02-28T18:13:19.956Z,87.10
2019-02-28T18:16:14.520Z,88.00
2019-02-28T18:19:33.109Z,89.00
2019-02-28T18:22:35.128Z,89.40
2019-02-28T18:25:36.863Z,90.30
2019-02-28T18:29:09.427Z,90.60
2019-02-28T18:31:41.923Z,91.00
2019-02-28T18:34:27.511Z,91.40
2019-02-28T18:36:57.842Z,91.70
2019-02-28T18:39:28.562Z,91.90
2019-02-28T18:41:58.956Z,92.10
2019-02-28T18:44:29.344Z,92.20
2019-02-28T18:47:02.954Z,92.40
2019-02-28T18:49:31.694Z,92.70
2019-02-28T18:52:02.080Z,92.80
2019-02-28T18:54:32.506Z,92.70
2019-02-28T18:57:04.978Z,92.60
2019-02-28T18:59:35.318Z,92.70
2019-02-28T19:02:05.796Z,92.70
2019-02-28T19:04:36.129Z,92.70
2019-02-28T19:07:06.426Z,92.70
2019-02-28T19:09:36.769Z,92.80
2019-02-28T19:12:07.077Z,92.80
2019-02-28T19:14:37.468Z,92.90
2019-02-28T19:17:07.822Z,93.00
2019-02-28T19:19:38.144Z,93.20
2019-02-28T19:22:08.428Z,93.10
2019-02-28T19:24:38.783Z,93.20
2019-02-28T19:27:09.073Z,93.20
2019-02-28T19:29:39.490Z,93.30
2019-02-28T19:32:09.862Z,93.30
2019-02-28T19:34:40.184Z,93.30
2019-02-28T19:37:10.469Z,93.30
2019-02-28T19:39:40.849Z,93.20
2019-02-28T19:42:11.240Z,93.30
2019-02-28T19:44:41.750Z,93.30
2019-02-28T19:47:12.054Z,93.40
2019-02-28T19:49:42.390Z,93.30
2019-02-28T19:52:12.763Z,93.40
2019-02-28T19:54:43.092Z,93.60
2019-02-28T19:57:13.849Z,93.50
2019-02-28T19:59:44.193Z,93.60
2019-02-28T20:02:14.622Z,93.60
2019-02-28T20:04:45.162Z,93.30
2019-02-28T20:07:15.559Z,93.10
2019-02-28T20:09:45.912Z,93.10
2019-02-28T20:12:16.484Z,92.80
2019-02-28T20:14:46.765Z,92.80
2019-02-28T20:17:17.148Z,92.80
2019-02-28T20:19:47.481Z,92.80
2019-02-28T20:22:17.837Z,92.80
2019-02-28T20:24:48.169Z,92.80
2019-02-28T20:27:18.499Z,92.60
2019-02-28T20:29:55.171Z,92.50
2019-02-28T20:32:20.743Z,92.40
2019-02-28T20:34:51.072Z,92.50
2019-02-28T20:37:21.412Z,92.20
2019-02-28T20:39:51.761Z,92.20
2019-02-28T20:42:22.033Z,91.80
2019-02-28T20:44:52.345Z,91.90
2019-02-28T20:47:22.717Z,91.70
2019-02-28T20:49:52.930Z,91.50
2019-02-28T20:52:23.265Z,91.70
2019-02-28T20:54:53.687Z,91.60
2019-02-28T20:57:24.007Z,91.40
2019-02-28T20:59:54.392Z,91.40
2019-02-28T21:02:24.732Z,91.20
2019-02-28T21:04:55.152Z,91.20
2019-02-28T21:07:25.503Z,91.10
2019-02-28T21:09:55.864Z,91.10
2019-02-28T21:12:26.149Z,91.10
2019-02-28T21:14:56.549Z,91.10
2019-02-28T21:17:29.549Z,91.30
2019-02-28T21:19:59.750Z,91.20
2019-02-28T21:22:30.159Z,91.10
2019-02-28T21:25:00.540Z,91.10
2019-02-28T21:27:30.945Z,91.20
2019-02-28T21:30:01.311Z,91.10
2019-02-28T21:32:31.722Z,91.20
2019-02-28T21:35:02.258Z,91.30
2019-02-28T21:37:35.796Z,91.60
2019-02-28T21:40:07.065Z,91.40
2019-02-28T21:42:37.325Z,91.40
2019-02-28T21:45:08.833Z,91.80
2019-02-28T21:47:39.118Z,91.90
2019-02-28T21:50:11.036Z,91.80
2019-02-28T21:52:41.362Z,91.80
2019-02-28T21:55:12.600Z,91.80
2019-02-28T21:57:42.941Z,91.90
2019-02-28T22:00:15.743Z,92.10
2019-02-28T22:02:46.093Z,92.10
2019-02-28T22:05:16.624Z,92.20
2019-02-28T22:07:46.936Z,92.30
2019-02-28T22:10:17.384Z,92.30
2019-02-28T22:12:47.685Z,92.50
2019-02-28T22:15:18.345Z,92.70
2019-02-28T22:17:48.567Z,92.80
2019-02-28T22:20:18.912Z,93.00
2019-02-28T22:22:49.218Z,93.00
2019-02-28T22:25:19.562Z,93.00
2019-02-28T22:27:49.884Z,93.20
2019-02-28T22:30:38.064Z,93.50
2019-02-28T22:33:12.037Z,93.60
2019-02-28T22:35:45.663Z,93.90
2019-02-28T22:38:16.003Z,94.30
2019-02-28T22:40:46.271Z,94.20
2019-02-28T22:43:16.594Z,94.20
2019-02-28T22:45:47.022Z,94.20
2019-02-28T22:48:17.342Z,94.40
2019-02-28T22:50:47.672Z,94.40
2019-02-28T22:53:17.964Z,94.40
2019-02-28T22:55:48.334Z,94.60
2019-02-28T22:58:18.587Z,94.90
2019-02-28T23:01:04.730Z,95.10
2019-02-28T23:03:35.357Z,95.40
2019-02-28T23:06:06.155Z,95.40
2019-02-28T23:08:36.387Z,95.60
2019-02-28T23:11:06.808Z,95.80
2019-02-28T23:13:37.133Z,96.00
2019-02-28T23:16:08.146Z,96.20
2019-02-28T23:18:38.444Z,96.30
2019-02-28T23:21:08.781Z,96.60
2019-02-28T23:23:39.062Z,96.80
2019-02-28T23:26:11.441Z,97.00
2019-02-28T23:28:47.579Z,97.20
2019-02-28T23:32:08.113Z,97.40
2019-02-28T23:34:40.670Z,97.60
2019-02-28T23:37:10.945Z,98.00
2019-02-28T23:39:41.237Z,98.60
2019-02-28T23:42:11.495Z,99.40
2019-02-28T23:44:41.784Z,99.70
2019-02-28T23:47:12.166Z,99.90
2019-02-28T23:49:42.477Z,99.90
2019-02-28T23:52:12.689Z,99.90
2019-02-28T23:54:42.980Z,99.90
2019-02-28T23:57:13.277Z,99.90
2019-02-28T23:59:43.553Z,99.90
